createdAt,value
2022-11-24T00:00:35.188Z,520.4
2022-11-24T00:01:41.734Z,524.7
2022-11-24T00:02:48.278Z,522
2022-11-24T00:03:54.807Z,523.6
2022-11-24T00:05:01.352Z,520.9
2022-11-24T00:06:07.911Z,518.6
2022-11-24T00:07:14.427Z,517.9
2022-11-24T00:08:20.958Z,523.2
2022-11-24T00:09:27.502Z,523.2
2022-11-24T00:10:34.036Z,520.5
2022-11-24T00:11:40.557Z,523
2022-11-24T00:12:47.094Z,528.1
2022-11-24T00:13:53.635Z,525.6
2022-11-24T00:15:00.166Z,524.3
2022-11-24T00:16:07.059Z,524.1
2022-11-24T00:17:13.719Z,524.4
2022-11-24T00:18:20.498Z,522.6
2022-11-24T00:19:27.277Z,525.7
2022-11-24T00:20:34.056Z,529.2
2022-11-24T00:21:40.837Z,523.9
2022-11-24T00:22:47.614Z,524.9
2022-11-24T00:23:54.382Z,524.4
2022-11-24T00:25:01.163Z,525.4
2022-11-24T00:26:07.943Z,529.4
2022-11-24T00:27:14.710Z,525.9
2022-11-24T00:28:21.502Z,524.8
2022-11-24T00:29:28.272Z,521.7
2022-11-24T00:32:46.475Z,525.5
2022-11-24T00:34:21.250Z,521.1
2022-11-24T00:35:27.755Z,520.3
2022-11-24T00:36:34.375Z,523.7
2022-11-24T00:37:40.835Z,529.9
2022-11-24T00:38:47.435Z,527.4
2022-11-24T00:39:53.915Z,534.3
2022-11-24T00:41:00.462Z,517.2
2022-11-24T00:42:06.993Z,526.6
2022-11-24T00:43:13.530Z,528.8
2022-11-24T00:44:20.074Z,524
2022-11-24T00:45:26.752Z,527.6
2022-11-24T00:46:33.151Z,533.7
2022-11-24T00:47:39.692Z,527.3
2022-11-24T00:48:46.236Z,532.6
2022-11-24T00:49:52.767Z,531.6
2022-11-24T00:50:59.310Z,529.9
2022-11-24T00:52:05.911Z,527.7
2022-11-24T00:53:12.468Z,521.6
2022-11-24T00:54:18.931Z,526.6
2022-11-24T00:55:25.469Z,524.5
2022-11-24T00:56:32.019Z,535.9
2022-11-24T00:57:38.553Z,530.6
2022-11-24T00:58:45.093Z,526.6
2022-11-24T00:59:51.636Z,529.2
2022-11-24T01:00:58.178Z,529
2022-11-24T01:02:04.954Z,526.5
2022-11-24T01:03:11.729Z,523.8
2022-11-24T01:04:18.507Z,531.3
2022-11-24T01:05:25.290Z,523.6
2022-11-24T01:06:32.063Z,527
2022-11-24T01:07:38.835Z,531.5
2022-11-24T01:08:45.609Z,523.1
2022-11-24T01:09:52.394Z,525.2
2022-11-24T01:10:59.174Z,529.4
2022-11-24T01:12:05.950Z,528.6
2022-11-24T01:13:12.716Z,526.1
2022-11-24T01:14:19.490Z,531.1
2022-11-24T01:15:26.289Z,525.9
2022-11-24T01:16:33.549Z,527.9
2022-11-24T01:18:11.810Z,526.1
2022-11-24T01:19:18.584Z,527.4
2022-11-24T01:20:25.362Z,526.4
2022-11-24T01:21:32.131Z,526.6
2022-11-24T01:22:38.908Z,528.7
2022-11-24T01:23:45.688Z,521.5
2022-11-24T01:24:52.465Z,525.1
2022-11-24T01:25:59.238Z,528.8
2022-11-24T01:27:06.019Z,526
2022-11-24T01:28:12.790Z,523.3
2022-11-24T01:29:19.592Z,527.1
2022-11-24T01:30:26.351Z,529.7
2022-11-24T01:31:33.201Z,531.5
2022-11-24T01:32:39.893Z,530.3
2022-11-24T01:33:46.678Z,530.5
2022-11-24T01:34:53.449Z,530.9
2022-11-24T01:36:00.225Z,527.5
2022-11-24T01:37:07.027Z,529.3
2022-11-24T01:38:13.780Z,528.9
2022-11-24T01:39:20.554Z,528
2022-11-24T01:40:27.334Z,532.6
2022-11-24T01:41:34.121Z,524.8
2022-11-24T01:42:40.885Z,530.4
2022-11-24T01:43:47.659Z,531.8
2022-11-24T01:44:54.440Z,529.7
2022-11-24T01:47:06.669Z,525
2022-11-24T01:48:44.693Z,528.9
2022-11-24T01:49:51.237Z,530.7
2022-11-24T01:50:57.777Z,525.3
2022-11-24T01:52:04.323Z,529.9
2022-11-24T01:53:10.848Z,529.9
2022-11-24T01:54:17.386Z,527.5
2022-11-24T01:55:23.918Z,529.4
2022-11-24T01:56:30.464Z,525.9
2022-11-24T01:57:37.005Z,527.3
2022-11-24T01:58:43.552Z,526.3
2022-11-24T01:59:50.088Z,531.7
2022-11-24T02:00:56.631Z,515.1
2022-11-24T02:02:03.176Z,526.8
2022-11-24T02:03:09.704Z,530
2022-11-24T02:04:16.254Z,533
2022-11-24T02:05:22.796Z,524.7
2022-11-24T02:06:29.342Z,534.7
2022-11-24T02:07:35.880Z,525.5
2022-11-24T02:08:42.418Z,525.9
2022-11-24T02:09:48.970Z,523.8
2022-11-24T02:10:55.508Z,527.3
2022-11-24T02:12:02.049Z,521.1
2022-11-24T02:13:08.582Z,521.5
2022-11-24T02:14:15.124Z,523.9
2022-11-24T02:15:21.682Z,525.6
2022-11-24T02:16:28.449Z,528
2022-11-24T02:17:35.232Z,528.3
2022-11-24T02:18:42.008Z,528.3
2022-11-24T02:19:48.782Z,529
2022-11-24T02:20:55.566Z,524.9
2022-11-24T02:22:02.348Z,532
2022-11-24T02:23:09.113Z,529.7
2022-11-24T02:24:15.908Z,530.3
2022-11-24T02:25:22.677Z,528.4
2022-11-24T02:26:29.453Z,522.8
2022-11-24T02:27:36.221Z,521.5
2022-11-24T02:28:43.008Z,525.5
2022-11-24T02:29:49.787Z,529.5
2022-11-24T02:33:07.966Z,525.2
2022-11-24T02:34:46.239Z,531.7
2022-11-24T02:35:52.990Z,524.7
2022-11-24T02:36:59.769Z,522.7
2022-11-24T02:38:06.549Z,531.7
2022-11-24T02:39:13.333Z,527.6
2022-11-24T02:40:20.100Z,527.3
2022-11-24T02:41:26.878Z,529.3
2022-11-24T02:42:33.671Z,525.1
2022-11-24T02:43:40.431Z,530.5
2022-11-24T02:44:47.229Z,525.5
2022-11-24T02:45:53.998Z,524.4
2022-11-24T02:47:00.792Z,524.7
2022-11-24T02:48:07.552Z,529.4
2022-11-24T02:49:14.321Z,527.2
2022-11-24T02:50:21.094Z,528.1
2022-11-24T02:51:27.878Z,529.7
2022-11-24T02:52:34.662Z,531.5
2022-11-24T02:53:41.433Z,529.3
2022-11-24T02:54:48.240Z,528.9
2022-11-24T02:55:54.986Z,532.7
2022-11-24T02:57:01.770Z,532.4
2022-11-24T02:58:08.608Z,526.6
2022-11-24T02:59:15.317Z,523.5
2022-11-24T03:00:22.123Z,531.3
2022-11-24T03:01:28.891Z,528.2
2022-11-24T03:03:02.203Z,530.5
2022-11-24T03:04:08.187Z,532.4
2022-11-24T03:05:14.624Z,530.5
2022-11-24T03:06:21.036Z,530.9
2022-11-24T03:07:27.449Z,528.5
2022-11-24T03:08:33.873Z,529.7
2022-11-24T03:09:40.289Z,530.9
2022-11-24T03:10:46.719Z,524.6
2022-11-24T03:11:53.156Z,534.1
2022-11-24T03:12:59.566Z,534.5
2022-11-24T03:14:05.987Z,536.3
2022-11-24T03:15:12.421Z,532.3
2022-11-24T03:16:18.829Z,532.8
2022-11-24T03:17:25.283Z,536.6
2022-11-24T03:18:31.671Z,531
2022-11-24T03:19:38.096Z,532.6
2022-11-24T03:20:44.571Z,530.8
2022-11-24T03:21:50.934Z,535.7
2022-11-24T03:22:57.371Z,539.1
2022-11-24T03:24:03.770Z,534.2
2022-11-24T03:25:10.191Z,534.8
2022-11-24T03:26:16.642Z,530.7
2022-11-24T03:27:23.017Z,536.8
2022-11-24T03:28:29.422Z,535.3
2022-11-24T03:29:35.831Z,537.6
2022-11-24T03:30:42.263Z,533.7
2022-11-24T03:31:48.817Z,536.4
2022-11-24T03:32:55.353Z,531.1
2022-11-24T03:34:01.898Z,528.4
2022-11-24T03:35:08.432Z,528
2022-11-24T03:36:15.020Z,534.6
2022-11-24T03:37:21.521Z,539
2022-11-24T03:38:28.098Z,534.4
2022-11-24T03:39:34.605Z,539.6
2022-11-24T03:40:41.146Z,535.5
2022-11-24T03:41:47.680Z,532.1
2022-11-24T03:42:54.213Z,536.5
2022-11-24T03:44:00.767Z,533.4
2022-11-24T03:45:07.302Z,532.1
2022-11-24T03:46:40.247Z,537.6
2022-11-24T03:47:47.018Z,533.8
2022-11-24T03:48:53.797Z,537.8
2022-11-24T03:50:00.572Z,530.5
2022-11-24T03:51:07.349Z,534.8
2022-11-24T03:52:14.126Z,538.5
2022-11-24T03:53:20.895Z,535.8
2022-11-24T03:54:27.669Z,539.7
2022-11-24T03:55:34.452Z,533.7
2022-11-24T03:56:41.231Z,533.5
2022-11-24T03:57:48.010Z,542.3
2022-11-24T03:58:54.819Z,532.8
2022-11-24T04:00:01.598Z,531.1
2022-11-24T04:03:19.755Z,535.6
2022-11-24T04:04:58.005Z,538.2
2022-11-24T04:06:04.774Z,533.5
2022-11-24T04:07:11.550Z,533.7
2022-11-24T04:08:18.327Z,531.3
2022-11-24T04:09:25.123Z,536.2
2022-11-24T04:10:31.878Z,536.2
2022-11-24T04:11:38.676Z,533
2022-11-24T04:12:45.466Z,539.8
2022-11-24T04:13:52.206Z,534.9
2022-11-24T04:14:58.982Z,536.7
2022-11-24T04:16:05.750Z,531.2
2022-11-24T04:17:12.546Z,542.2
2022-11-24T04:18:19.308Z,541.4
2022-11-24T04:19:26.093Z,536.1
2022-11-24T04:20:32.872Z,532.3
2022-11-24T04:21:39.640Z,542.1
2022-11-24T04:22:46.428Z,532.8
2022-11-24T04:23:53.198Z,529.6
2022-11-24T04:24:59.992Z,534.9
2022-11-24T04:26:06.761Z,537.3
2022-11-24T04:27:13.561Z,532.7
2022-11-24T04:28:20.347Z,531.5
2022-11-24T04:29:27.096Z,531.6
2022-11-24T04:30:33.870Z,533
2022-11-24T04:31:40.654Z,534.6
2022-11-24T04:33:52.885Z,533.8
2022-11-24T04:34:59.019Z,535.4
2022-11-24T04:36:05.613Z,536.6
2022-11-24T04:37:12.063Z,534.7
2022-11-24T04:38:18.594Z,539.2
2022-11-24T04:39:25.168Z,538.9
2022-11-24T04:40:31.675Z,538.9
2022-11-24T04:41:38.238Z,540.1
2022-11-24T04:42:44.805Z,535.4
2022-11-24T04:43:51.307Z,532.3
2022-11-24T04:44:57.820Z,532.8
2022-11-24T04:46:04.365Z,537.4
2022-11-24T04:47:10.892Z,541.8
2022-11-24T04:48:17.448Z,541.6
2022-11-24T04:49:23.973Z,539.6
2022-11-24T04:50:30.511Z,540
2022-11-24T04:51:37.052Z,540.4
2022-11-24T04:52:43.607Z,534.8
2022-11-24T04:53:50.125Z,537.8
2022-11-24T04:54:56.654Z,537.2
2022-11-24T04:56:03.204Z,544
2022-11-24T04:57:09.742Z,542
2022-11-24T04:58:16.288Z,542.3
2022-11-24T04:59:22.813Z,536.3
2022-11-24T05:00:29.351Z,538.5
2022-11-24T05:01:35.891Z,548.3
2022-11-24T05:02:42.669Z,541.6
2022-11-24T05:03:49.445Z,541.6
2022-11-24T05:04:56.206Z,545.2
2022-11-24T05:06:02.995Z,537.6
2022-11-24T05:07:09.763Z,544.8
2022-11-24T05:08:16.531Z,540.6
2022-11-24T05:09:23.310Z,536.4
2022-11-24T05:10:30.092Z,540.6
2022-11-24T05:11:36.863Z,536
2022-11-24T05:12:43.631Z,534.3
2022-11-24T05:13:50.407Z,542.6
2022-11-24T05:14:57.182Z,540.3
2022-11-24T05:16:03.956Z,538.1
2022-11-24T05:17:11.260Z,537.2
2022-11-24T05:18:49.255Z,537.8
2022-11-24T05:19:55.791Z,542.6
2022-11-24T05:21:02.330Z,534.3
2022-11-24T05:22:08.862Z,543.6
2022-11-24T05:23:15.425Z,540.7
2022-11-24T05:24:21.954Z,539.8
2022-11-24T05:25:28.470Z,536.7
2022-11-24T05:26:35.024Z,542.1
2022-11-24T05:27:41.571Z,543.3
2022-11-24T05:28:48.079Z,536.3
2022-11-24T05:31:01.159Z,543.1
2022-11-24T05:32:07.704Z,539.9
2022-11-24T05:33:14.232Z,544.8
2022-11-24T05:34:20.762Z,542.2
2022-11-24T05:35:27.317Z,535.8
2022-11-24T05:36:33.849Z,543.8
2022-11-24T05:37:40.383Z,542
2022-11-24T05:38:46.928Z,543.2
2022-11-24T05:39:53.466Z,545.7
2022-11-24T05:41:00.001Z,541.7
2022-11-24T05:42:06.534Z,544.7
2022-11-24T05:43:13.083Z,538.7
2022-11-24T05:44:19.619Z,543.9
2022-11-24T05:45:26.181Z,540
2022-11-24T05:46:32.937Z,543.6
2022-11-24T05:47:39.727Z,540.1
2022-11-24T05:48:46.488Z,544.2
2022-11-24T05:49:53.266Z,549.7
2022-11-24T05:51:00.057Z,541.7
2022-11-24T05:52:06.811Z,547.6
2022-11-24T05:53:13.584Z,548.6
2022-11-24T05:54:20.371Z,544.2
2022-11-24T05:55:27.134Z,544.9
2022-11-24T05:56:33.914Z,546.4
2022-11-24T05:57:40.687Z,544.6
2022-11-24T05:58:47.461Z,549.2
2022-11-24T05:59:54.237Z,544
2022-11-24T06:03:12.452Z,545.7
2022-11-24T06:04:47.296Z,549.2
2022-11-24T06:05:53.806Z,545.7
2022-11-24T06:07:00.387Z,544.8
2022-11-24T06:08:06.827Z,544.4
2022-11-24T06:09:13.375Z,545.9
2022-11-24T06:10:19.975Z,542.8
2022-11-24T06:13:39.525Z,547.8
2022-11-24T06:14:46.065Z,549.7
2022-11-24T06:15:52.684Z,543.5
2022-11-24T06:16:59.126Z,544.8
2022-11-24T06:18:05.687Z,538.9
2022-11-24T06:19:12.209Z,544.6
2022-11-24T06:20:18.759Z,545.3
2022-11-24T06:21:25.281Z,547.9
2022-11-24T06:22:31.850Z,547.5
2022-11-24T06:23:38.355Z,546
2022-11-24T06:24:44.890Z,547.2
2022-11-24T06:25:51.426Z,542.5
2022-11-24T06:26:57.969Z,543.3
2022-11-24T06:28:04.504Z,547.6
2022-11-24T06:29:11.054Z,548.8
2022-11-24T06:30:17.570Z,546.2
2022-11-24T06:31:24.110Z,546.8
2022-11-24T06:32:30.889Z,540.1
2022-11-24T06:33:37.728Z,543.9
2022-11-24T06:34:44.432Z,543.2
2022-11-24T06:35:51.238Z,545
2022-11-24T06:36:57.983Z,545.9
2022-11-24T06:38:04.763Z,548.5
2022-11-24T06:39:11.610Z,540.2
2022-11-24T06:40:18.311Z,545.3
2022-11-24T06:41:25.089Z,541.9
2022-11-24T06:42:31.855Z,545.5
2022-11-24T06:43:38.639Z,544.3
2022-11-24T06:44:45.411Z,541.6
2022-11-24T06:45:52.187Z,546.7
2022-11-24T06:46:59.468Z,545.4
2022-11-24T06:48:37.488Z,538
2022-11-24T06:49:44.027Z,542.9
2022-11-24T06:50:50.564Z,548.1
2022-11-24T06:51:57.101Z,543.6
2022-11-24T06:53:03.641Z,550.2
2022-11-24T06:54:10.186Z,545.2
2022-11-24T06:55:16.741Z,545.7
2022-11-24T06:56:23.261Z,544.9
2022-11-24T06:57:29.788Z,547
2022-11-24T06:58:36.372Z,544.8
2022-11-24T06:59:42.871Z,541.7
2022-11-24T07:00:49.401Z,549
2022-11-24T07:01:55.940Z,547.5
2022-11-24T07:03:02.477Z,549.6
2022-11-24T07:04:09.009Z,547.5
2022-11-24T07:05:15.597Z,548.1
2022-11-24T07:06:22.103Z,542.3
2022-11-24T07:07:28.699Z,549.5
2022-11-24T07:08:35.178Z,544.1
2022-11-24T07:09:41.695Z,547.8
2022-11-24T07:10:48.218Z,541.8
2022-11-24T07:11:54.761Z,547.7
2022-11-24T07:13:01.285Z,547.9
2022-11-24T07:14:07.913Z,550.2
2022-11-24T07:15:14.357Z,546.3
2022-11-24T07:16:21.129Z,547.8
2022-11-24T07:17:27.893Z,547.6
2022-11-24T07:18:34.673Z,548.3
2022-11-24T07:19:41.448Z,548.8
2022-11-24T07:20:48.244Z,550.3
2022-11-24T07:21:55.013Z,543
2022-11-24T07:23:01.751Z,546.5
2022-11-24T07:24:08.526Z,550.3
2022-11-24T07:25:15.290Z,546.5
2022-11-24T07:26:22.055Z,551.4
2022-11-24T07:27:28.820Z,550.4
2022-11-24T07:28:35.602Z,551.4
2022-11-24T07:29:42.374Z,550.6
2022-11-24T07:33:00.560Z,545.4
2022-11-24T07:34:35.408Z,550.8
2022-11-24T07:35:41.861Z,546.1
2022-11-24T07:36:48.400Z,546.8
2022-11-24T07:37:54.939Z,549.1
2022-11-24T07:39:01.496Z,552.3
2022-11-24T07:40:08.047Z,547
2022-11-24T07:41:14.559Z,551
2022-11-24T07:42:21.105Z,550.3
2022-11-24T07:43:27.636Z,547.6
2022-11-24T07:44:34.170Z,548.3
2022-11-24T07:46:47.248Z,548.9
2022-11-24T07:47:53.788Z,545.8
2022-11-24T07:49:00.331Z,549.1
2022-11-24T07:50:06.882Z,547.4
2022-11-24T07:51:13.402Z,549.8
2022-11-24T07:52:19.971Z,550.4
2022-11-24T07:53:26.491Z,552.2
2022-11-24T07:54:33.024Z,549.3
2022-11-24T07:55:39.568Z,552
2022-11-24T07:56:46.115Z,548.6
2022-11-24T07:57:52.656Z,549.6
2022-11-24T07:58:59.240Z,551.6
2022-11-24T08:00:05.795Z,551.5
2022-11-24T08:01:12.511Z,550.6
2022-11-24T08:02:19.173Z,547.6
2022-11-24T08:03:25.845Z,550.5
2022-11-24T08:04:32.610Z,549.9
2022-11-24T08:05:39.447Z,543.3
2022-11-24T08:06:46.239Z,548
2022-11-24T08:07:53.011Z,547.6
2022-11-24T08:08:59.759Z,549.6
2022-11-24T08:10:06.551Z,549.7
2022-11-24T08:11:13.303Z,548.7
2022-11-24T08:12:20.104Z,549.2
2022-11-24T08:13:26.863Z,551.3
2022-11-24T08:14:33.703Z,548.6
2022-11-24T08:15:40.405Z,543.5
2022-11-24T08:16:47.694Z,546.6
2022-11-24T08:18:25.931Z,547.9
2022-11-24T08:19:32.718Z,551
2022-11-24T08:20:39.491Z,548.4
2022-11-24T08:21:46.322Z,549.9
2022-11-24T08:22:53.069Z,552.9
2022-11-24T08:23:59.837Z,551.1
2022-11-24T08:25:06.611Z,548.8
2022-11-24T08:26:13.458Z,550.7
2022-11-24T08:27:20.148Z,551.5
2022-11-24T08:28:26.922Z,550.8
2022-11-24T08:29:33.695Z,550.9
2022-11-24T08:30:40.483Z,547.6
2022-11-24T08:31:47.399Z,551.7
2022-11-24T08:32:54.085Z,548.9
2022-11-24T08:34:00.809Z,553
2022-11-24T08:35:07.653Z,550
2022-11-24T08:36:14.347Z,547.5
2022-11-24T08:37:21.119Z,550.7
2022-11-24T08:38:27.888Z,545.7
2022-11-24T08:39:34.688Z,545.5
2022-11-24T08:40:41.458Z,548.5
2022-11-24T08:41:48.214Z,550.5
2022-11-24T08:42:55.061Z,546.1
2022-11-24T08:44:01.779Z,549.4
2022-11-24T08:45:08.533Z,551.1
2022-11-24T08:47:20.902Z,545.9
2022-11-24T08:48:59.111Z,549.8
2022-11-24T08:50:05.851Z,555.1
2022-11-24T08:51:12.647Z,548.1
2022-11-24T08:52:19.403Z,548.9
2022-11-24T08:53:26.186Z,547.8
2022-11-24T08:54:32.947Z,550.1
2022-11-24T08:55:39.741Z,550.7
2022-11-24T08:56:46.499Z,551.3
2022-11-24T08:57:53.295Z,547.6
2022-11-24T08:59:00.047Z,550.6
2022-11-24T09:00:06.836Z,547.7
2022-11-24T09:01:13.585Z,550.7
2022-11-24T09:02:20.371Z,553.9
2022-11-24T09:03:27.131Z,549.6
2022-11-24T09:04:33.904Z,554.2
2022-11-24T09:05:40.685Z,553.2
2022-11-24T09:06:47.474Z,546.7
2022-11-24T09:07:54.226Z,550.4
2022-11-24T09:09:01.012Z,553.3
2022-11-24T09:10:07.778Z,549.8
2022-11-24T09:11:14.560Z,553.1
2022-11-24T09:12:21.339Z,556.4
2022-11-24T09:13:28.139Z,555.3
2022-11-24T09:14:34.878Z,553.1
2022-11-24T09:15:41.681Z,553.8
2022-11-24T09:17:15.046Z,549.6
2022-11-24T09:18:21.236Z,553.3
2022-11-24T09:19:27.710Z,549.7
2022-11-24T09:20:34.202Z,550.9
2022-11-24T09:21:40.743Z,555.3
2022-11-24T09:22:47.366Z,548.5
2022-11-24T09:23:54.004Z,552.1
2022-11-24T09:25:00.510Z,551
2022-11-24T09:26:07.027Z,551.7
2022-11-24T09:27:13.495Z,551.1
2022-11-24T09:28:19.944Z,552.4
2022-11-24T09:29:26.663Z,550.2
2022-11-24T09:30:33.167Z,551.8
2022-11-24T09:31:39.648Z,552.1
2022-11-24T09:32:46.142Z,555
2022-11-24T09:33:52.765Z,554.3
2022-11-24T09:34:59.244Z,552.2
2022-11-24T09:36:05.685Z,555.4
2022-11-24T09:37:12.377Z,556.1
2022-11-24T09:38:18.761Z,556.1
2022-11-24T09:39:25.424Z,546.5
2022-11-24T09:40:31.925Z,553.2
2022-11-24T09:41:38.439Z,552.7
2022-11-24T09:42:44.991Z,553.1
2022-11-24T09:43:51.478Z,552
2022-11-24T09:44:58.010Z,551
2022-11-24T09:46:04.766Z,551.9
2022-11-24T09:47:11.516Z,547.5
2022-11-24T09:48:18.353Z,549.4
2022-11-24T09:49:25.249Z,553.2
2022-11-24T09:50:31.950Z,550.8
2022-11-24T09:51:38.604Z,547
2022-11-24T09:52:45.443Z,550.8
2022-11-24T09:53:52.260Z,551.1
2022-11-24T09:54:58.992Z,548.5
2022-11-24T09:56:05.679Z,552.7
2022-11-24T09:57:12.463Z,554.3
2022-11-24T09:58:19.228Z,553.3
2022-11-24T09:59:26.000Z,548.5
2022-11-24T10:00:33.351Z,551.2
2022-11-24T10:02:11.424Z,552.9
2022-11-24T10:03:17.836Z,550.6
2022-11-24T10:04:24.496Z,557.6
2022-11-24T10:05:30.957Z,552.1
2022-11-24T10:06:37.461Z,552.2
2022-11-24T10:07:43.966Z,550.9
2022-11-24T10:08:50.612Z,551.9
2022-11-24T10:09:57.059Z,552
2022-11-24T10:11:03.650Z,554.5
2022-11-24T10:12:10.122Z,553.3
2022-11-24T10:13:16.660Z,549.6
2022-11-24T10:15:29.769Z,556.6
2022-11-24T10:16:36.314Z,551.6
2022-11-24T10:17:42.959Z,551.7
2022-11-24T10:18:49.420Z,550.7
2022-11-24T10:19:55.962Z,554.2
2022-11-24T10:21:02.589Z,555.9
2022-11-24T10:22:09.204Z,557.8
2022-11-24T10:23:15.743Z,558.2
2022-11-24T10:24:22.159Z,555.1
2022-11-24T10:25:28.742Z,556.5
2022-11-24T10:26:35.261Z,556.2
2022-11-24T10:27:41.814Z,551
2022-11-24T10:28:48.356Z,555.1
2022-11-24T10:29:55.143Z,559.8
2022-11-24T10:31:01.941Z,554
2022-11-24T10:32:08.722Z,557.1
2022-11-24T10:33:15.519Z,555.7
2022-11-24T10:34:22.345Z,553.9
2022-11-24T10:35:29.082Z,557.6
2022-11-24T10:36:35.908Z,555.5
2022-11-24T10:37:42.664Z,553.4
2022-11-24T10:38:49.454Z,554
2022-11-24T10:39:56.272Z,557.5
2022-11-24T10:41:03.013Z,552.9
2022-11-24T10:42:09.761Z,553.6
2022-11-24T10:43:16.528Z,554.5
2022-11-24T10:46:34.696Z,553.4
2022-11-24T10:48:10.334Z,552
2022-11-24T10:49:17.538Z,558.1
2022-11-24T10:50:56.274Z,564.1
2022-11-24T10:52:35.011Z,559.1
2022-11-24T10:54:13.804Z,562.9
2022-11-24T10:55:52.475Z,555.2
2022-11-24T10:57:31.326Z,555.8
2022-11-24T10:59:09.942Z,561
2022-11-24T11:00:48.671Z,559
2022-11-24T11:02:27.403Z,553.8
2022-11-24T11:04:06.251Z,556.7
2022-11-24T11:05:13.396Z,562.1
2022-11-24T11:08:14.189Z,557
2022-11-24T11:11:29.866Z,556.6
2022-11-24T11:12:36.421Z,557.9
2022-11-24T11:13:43.076Z,562.6
2022-11-24T11:14:49.577Z,559.8
2022-11-24T11:15:56.070Z,562
2022-11-24T11:17:02.615Z,560.8
2022-11-24T11:18:09.195Z,561.9
2022-11-24T11:19:15.734Z,560.9
2022-11-24T11:20:22.267Z,557.3
2022-11-24T11:21:28.934Z,561.1
2022-11-24T11:22:35.426Z,564.9
2022-11-24T11:23:41.933Z,561.4
2022-11-24T11:24:48.554Z,560.8
2022-11-24T11:25:55.066Z,561.9
2022-11-24T11:27:01.608Z,559.9
2022-11-24T11:28:08.142Z,558.7
2022-11-24T11:29:14.696Z,558.9
2022-11-24T11:30:21.235Z,558.2
2022-11-24T11:31:27.924Z,558.6
2022-11-24T11:32:34.344Z,559.2
2022-11-24T11:33:40.908Z,557
2022-11-24T11:34:47.431Z,559.7
2022-11-24T11:35:53.986Z,563.5
2022-11-24T11:37:00.598Z,554.4
2022-11-24T11:38:07.080Z,560.6
2022-11-24T11:39:13.882Z,564.5
2022-11-24T11:40:20.666Z,563.9
2022-11-24T11:41:27.546Z,560
2022-11-24T11:42:34.248Z,561.8
2022-11-24T11:43:41.123Z,562.4
2022-11-24T11:44:47.832Z,561
2022-11-24T11:45:54.644Z,559.8
2022-11-24T11:47:01.430Z,561
2022-11-24T11:48:08.208Z,560.5
2022-11-24T11:49:15.003Z,568.4
2022-11-24T11:50:21.868Z,569.1
2022-11-24T11:51:28.592Z,564
2022-11-24T11:52:35.380Z,566.2
2022-11-24T11:53:42.674Z,562.9
2022-11-24T11:55:21.532Z,557.3
2022-11-24T11:57:00.267Z,564.1
2022-11-24T11:58:38.994Z,558.5
2022-11-24T12:00:17.623Z,561.8
2022-11-24T12:01:56.382Z,562.6
2022-11-24T12:03:35.253Z,563.6
2022-11-24T12:05:14.002Z,566.4
2022-11-24T12:06:52.578Z,559.7
2022-11-24T12:08:31.387Z,563.8
2022-11-24T12:10:10.167Z,558.7
2022-11-24T12:11:48.833Z,561.9
2022-11-24T12:13:27.511Z,557.9
2022-11-24T12:17:35.604Z,562.1
2022-11-24T12:18:43.887Z,560
2022-11-24T12:20:51.279Z,564.1
2022-11-24T12:21:57.798Z,561
2022-11-24T12:23:04.409Z,561
2022-11-24T12:24:11.001Z,562.9
2022-11-24T12:25:17.524Z,555.7
2022-11-24T12:26:24.100Z,567.7
2022-11-24T12:27:30.655Z,558.4
2022-11-24T12:28:37.182Z,559.5
2022-11-24T12:29:43.732Z,557.1
2022-11-24T12:30:50.146Z,558.2
2022-11-24T12:31:56.732Z,564.1
2022-11-24T12:33:03.300Z,559.1
2022-11-24T12:34:09.784Z,555.1
2022-11-24T12:35:16.472Z,561.6
2022-11-24T12:36:22.893Z,561.4
2022-11-24T12:37:29.562Z,563.3
2022-11-24T12:38:36.073Z,562.1
2022-11-24T12:39:42.655Z,562.7
2022-11-24T12:40:49.122Z,563.9
2022-11-24T12:41:55.662Z,563.4
2022-11-24T12:43:02.222Z,561.9
2022-11-24T12:44:08.775Z,559.3
2022-11-24T12:45:15.333Z,562.9
2022-11-24T12:46:21.871Z,562.9
2022-11-24T12:47:28.481Z,563
2022-11-24T12:48:35.293Z,556.1
2022-11-24T12:49:42.021Z,562.3
2022-11-24T12:50:48.797Z,563
2022-11-24T12:51:55.599Z,563.8
2022-11-24T12:53:02.390Z,566.9
2022-11-24T12:54:09.163Z,564.9
2022-11-24T12:55:15.964Z,560.4
2022-11-24T12:56:22.956Z,565.9
2022-11-24T12:57:29.773Z,560.7
2022-11-24T12:58:36.365Z,555
2022-11-24T12:59:43.270Z,558.5
2022-11-24T13:00:50.088Z,551.7
2022-11-24T13:01:56.844Z,556.2
2022-11-24T13:05:14.971Z,558.5
2022-11-24T13:06:53.744Z,560.5
2022-11-24T13:08:32.499Z,562.8
2022-11-24T13:09:39.685Z,560.6
2022-11-24T13:10:47.101Z,559.6
2022-11-24T13:12:25.769Z,556.5
2022-11-24T13:14:04.448Z,558.4
2022-11-24T13:15:43.193Z,561.5
2022-11-24T13:17:21.918Z,560.3
2022-11-24T13:19:00.653Z,560.5
2022-11-24T13:20:39.411Z,562.8
2022-11-24T13:22:18.199Z,556.2
2022-11-24T13:23:56.857Z,564.4
2022-11-24T13:26:07.618Z,557.2
2022-11-24T13:28:03.131Z,563.2
2022-11-24T13:29:09.682Z,558.6
2022-11-24T13:30:16.187Z,562
2022-11-24T13:31:22.630Z,562.6
2022-11-24T13:32:29.337Z,556.3
2022-11-24T13:33:35.875Z,564.4
2022-11-24T13:34:42.397Z,558.9
2022-11-24T13:35:48.963Z,560.8
2022-11-24T13:36:55.510Z,562.1
2022-11-24T13:38:02.085Z,561
2022-11-24T13:39:08.674Z,558.4
2022-11-24T13:40:15.126Z,558.1
2022-11-24T13:41:21.671Z,556.9
2022-11-24T13:42:28.224Z,557.6
2022-11-24T13:43:34.821Z,562.5
2022-11-24T13:44:41.218Z,556.7
2022-11-24T13:45:47.849Z,559.7
2022-11-24T13:46:54.325Z,555.9
2022-11-24T13:48:00.943Z,556.3
2022-11-24T13:49:07.449Z,558.5
2022-11-24T13:50:13.981Z,560.6
2022-11-24T13:51:20.515Z,556.3
2022-11-24T13:52:27.071Z,560.1
2022-11-24T13:53:33.794Z,552.4
2022-11-24T13:54:40.320Z,555
2022-11-24T13:55:46.955Z,556.8
2022-11-24T13:56:53.958Z,557.5
2022-11-24T13:58:00.716Z,560.1
2022-11-24T13:59:07.487Z,558
2022-11-24T14:00:14.234Z,559.8
2022-11-24T14:01:21.053Z,558.3
2022-11-24T14:02:27.898Z,561.6
2022-11-24T14:03:34.466Z,560.1
2022-11-24T14:04:41.259Z,561.9
2022-11-24T14:05:48.168Z,553.7
2022-11-24T14:06:55.017Z,561
2022-11-24T14:08:01.805Z,556.5
2022-11-24T14:09:08.555Z,557.7
2022-11-24T14:11:48.854Z,557.9
2022-11-24T14:13:27.593Z,562.5
2022-11-24T14:15:06.292Z,560.8
2022-11-24T14:16:45.052Z,561.9
2022-11-24T14:17:52.240Z,557.8
2022-11-24T14:18:59.549Z,557.4
2022-11-24T14:20:38.311Z,555.8
2022-11-24T14:22:16.982Z,559.9
2022-11-24T14:23:55.800Z,555.6
2022-11-24T14:25:34.540Z,561.5
2022-11-24T14:27:13.249Z,560.2
2022-11-24T14:28:51.912Z,561.9
2022-11-24T14:30:30.781Z,555.4
2022-11-24T14:34:20.371Z,554.3
2022-11-24T14:35:26.810Z,555.2
2022-11-24T14:36:33.350Z,552.3
2022-11-24T14:37:40.142Z,559.5
2022-11-24T14:38:46.605Z,557.8
2022-11-24T14:39:53.185Z,555.4
2022-11-24T14:40:59.677Z,554.5
2022-11-24T14:42:06.222Z,554.8
2022-11-24T14:43:12.744Z,556.4
2022-11-24T14:44:19.321Z,550.6
2022-11-24T14:45:25.813Z,552.4
2022-11-24T14:46:32.274Z,553.7
2022-11-24T14:47:38.881Z,553.5
2022-11-24T14:48:45.410Z,550.6
2022-11-24T14:49:51.967Z,551.8
2022-11-24T14:50:58.301Z,550.9
2022-11-24T14:52:04.981Z,555.3
2022-11-24T14:53:11.528Z,553.1
2022-11-24T14:54:18.037Z,550.1
2022-11-24T14:55:24.589Z,553.8
2022-11-24T14:56:31.026Z,554.8
2022-11-24T14:57:37.509Z,555.9
2022-11-24T14:58:44.294Z,549.7
2022-11-24T14:59:50.577Z,554
2022-11-24T15:00:57.272Z,551.7
2022-11-24T15:02:03.666Z,553.1
2022-11-24T15:03:10.617Z,550
2022-11-24T15:04:17.335Z,554
2022-11-24T15:05:24.165Z,555.2
2022-11-24T15:06:30.843Z,552.6
2022-11-24T15:07:37.509Z,551.8
2022-11-24T15:08:44.406Z,546.6
2022-11-24T15:09:51.207Z,546.5
2022-11-24T15:10:57.953Z,548.7
2022-11-24T15:12:04.769Z,549.3
2022-11-24T15:13:11.499Z,551
2022-11-24T15:14:18.294Z,546.2
2022-11-24T15:15:24.960Z,544.9
2022-11-24T15:16:31.799Z,539.3
2022-11-24T15:19:11.905Z,544.3
2022-11-24T15:20:49.865Z,540.6
2022-11-24T15:21:56.401Z,545.2
2022-11-24T15:23:03.018Z,540.3
2022-11-24T15:24:09.664Z,543.1
2022-11-24T15:25:16.163Z,541.3
2022-11-24T15:26:22.708Z,547.1
2022-11-24T15:28:35.614Z,545.3
2022-11-24T15:29:42.155Z,540.7
2022-11-24T15:30:48.819Z,539.3
2022-11-24T15:31:55.482Z,544.2
2022-11-24T15:33:01.846Z,546.3
2022-11-24T15:34:08.369Z,541.4
2022-11-24T15:35:15.003Z,544.2